createdAt,value
2023-04-25T00:00:00.171Z, 16
2023-04-25T00:02:00.098Z, 16
2023-04-25T00:04:00.370Z, 16
2023-04-25T00:06:00.196Z, 16
2023-04-25T00:08:00.149Z, 16
2023-04-25T00:10:00.136Z, 15
2023-04-25T00:12:00.139Z, 15
2023-04-25T00:14:00.107Z, 15
2023-04-25T00:16:00.146Z, 15.1
2023-04-25T00:18:00.213Z, 15.1
2023-04-25T00:20:00.143Z, 16.2
2023-04-25T00:22:00.062Z, 16.2
2023-04-25T00:24:00.122Z, 16.2
2023-04-25T00:26:00.140Z, 14.5
2023-04-25T00:28:00.053Z, 14.5
2023-04-25T00:30:00.099Z, 14.3
2023-04-25T00:32:00.093Z, 14.3
2023-04-25T00:34:00.049Z, 14.3
2023-04-25T00:36:00.061Z, 13.6
2023-04-25T00:38:00.050Z, 13.6
2023-04-25T00:40:00.067Z, 14.8
2023-04-25T00:42:00.095Z, 14.8
2023-04-25T00:44:00.045Z, 14.8
2023-04-25T00:46:00.024Z, 15.1
2023-04-25T00:48:00.212Z, 15.1
2023-04-25T00:50:00.160Z, 15.8
2023-04-25T00:52:00.109Z, 15.8
2023-04-25T00:54:00.126Z, 15.8
2023-04-25T00:56:00.179Z, 15.4
2023-04-25T00:58:00.128Z, 15.4
2023-04-25T01:00:00.189Z, 17.2
2023-04-25T01:02:00.156Z, 17.2
2023-04-25T01:04:00.288Z, 17.2
2023-04-25T01:06:00.144Z, 15.8
2023-04-25T01:08:00.133Z, 15.8
2023-04-25T01:10:00.134Z, 15.4
2023-04-25T01:12:00.130Z, 15.4
2023-04-25T01:14:00.162Z, 15.4
2023-04-25T01:16:00.166Z, 13.9
2023-04-25T01:18:00.184Z, 13.9
2023-04-25T01:20:00.068Z, 15.6
2023-04-25T01:22:00.078Z, 15.6
2023-04-25T01:24:00.168Z, 15.6
2023-04-25T01:26:00.118Z, 14.6
2023-04-25T01:28:00.067Z, 14.6
2023-04-25T01:30:00.097Z, 15.4
2023-04-25T01:32:00.093Z, 15.4
2023-04-25T01:34:00.058Z, 15.4
2023-04-25T01:36:00.128Z, 15.7
2023-04-25T01:38:00.063Z, 15.7
2023-04-25T01:40:00.063Z, 16.2
2023-04-25T01:42:00.081Z, 16.2
2023-04-25T01:44:00.043Z, 16.2
2023-04-25T01:46:00.103Z, 13.6
2023-04-25T01:48:00.105Z, 13.6
2023-04-25T01:50:00.103Z, 12.2
2023-04-25T01:52:00.161Z, 12.2
2023-04-25T01:54:01.109Z, 12.2
2023-04-25T01:56:00.130Z, 11.2
2023-04-25T01:58:00.126Z, 11.2
2023-04-25T02:00:00.168Z, 9.9
2023-04-25T02:02:00.196Z, 9.9
2023-04-25T02:04:00.445Z, 9.9
2023-04-25T02:06:00.140Z, 9.6
2023-04-25T02:08:00.134Z, 9.6
2023-04-25T02:10:00.159Z, 10.3
2023-04-25T02:12:00.119Z, 10.3
2023-04-25T02:14:00.131Z, 10.3
2023-04-25T02:16:00.308Z, 9.7
2023-04-25T02:18:00.260Z, 9.7
2023-04-25T02:20:00.114Z, 10.4
2023-04-25T02:22:00.063Z, 10.4
2023-04-25T02:24:00.136Z, 10.4
2023-04-25T02:26:00.051Z, 10.2
2023-04-25T02:28:00.070Z, 10.2
2023-04-25T02:30:00.108Z, 12.3
2023-04-25T02:32:00.062Z, 12.3
2023-04-25T02:34:00.069Z, 11.5
2023-04-25T02:36:00.088Z, 10.8
2023-04-25T02:38:00.044Z, 10.8
2023-04-25T02:40:00.070Z, 10.6
2023-04-25T02:42:00.069Z, 10.6
2023-04-25T02:44:00.036Z, 10.4
2023-04-25T02:46:00.049Z, 10.4
2023-04-25T02:48:00.139Z, 10.4
2023-04-25T02:50:00.125Z, 9.3
2023-04-25T02:52:00.151Z, 9.3
2023-04-25T02:54:00.160Z, 9.2
2023-04-25T02:56:00.182Z, 9.2
2023-04-25T02:58:00.136Z, 9.2
2023-04-25T03:00:00.220Z, 9.3
2023-04-25T03:02:00.108Z, 9.3
2023-04-25T03:04:00.169Z, 9.8
2023-04-25T03:06:00.143Z, 9.8
2023-04-25T03:08:00.137Z, 9.8
2023-04-25T03:10:00.182Z, 8.7
2023-04-25T03:12:00.164Z, 8.7
2023-04-25T03:14:00.120Z, 7.3
2023-04-25T03:16:00.085Z, 7.3
2023-04-25T03:18:00.197Z, 7.3
2023-04-25T03:20:00.094Z, 6.4
2023-04-25T03:22:00.096Z, 6.4
2023-04-25T03:24:00.127Z, 7.9
2023-04-25T03:26:00.067Z, 7.9
2023-04-25T03:28:00.075Z, 7.9
2023-04-25T03:30:00.100Z, 7.8
2023-04-25T03:32:00.105Z, 7.8
2023-04-25T03:34:00.071Z, 7.1
2023-04-25T03:36:00.088Z, 7.1
2023-04-25T03:38:00.069Z, 7.1
2023-04-25T03:40:00.080Z, 6.2
2023-04-25T03:42:00.122Z, 6.2
2023-04-25T03:44:00.071Z, 7.5
2023-04-25T03:46:00.146Z, 7.5
2023-04-25T03:48:00.155Z, 7.5
2023-04-25T03:50:00.096Z, 8.2
2023-04-25T03:52:00.119Z, 8.2
2023-04-25T03:54:00.121Z, 6.6
2023-04-25T03:56:00.091Z, 6.6
2023-04-25T03:58:00.122Z, 6.6
2023-04-25T04:00:00.146Z, 7.8
2023-04-25T04:02:00.116Z, 7.8
2023-04-25T04:04:00.404Z, 7.1
2023-04-25T04:06:00.142Z, 7.1
2023-04-25T04:08:00.109Z, 7.1
2023-04-25T04:10:00.104Z, 7
2023-04-25T04:12:00.159Z, 7
2023-04-25T04:14:00.115Z, 7.2
2023-04-25T04:16:00.233Z, 7.2
2023-04-25T04:18:00.193Z, 7.2
2023-04-25T04:20:00.107Z, 7.4
2023-04-25T04:22:00.063Z, 7.4
2023-04-25T04:24:00.111Z, 6.7
2023-04-25T04:26:00.091Z, 6.7
2023-04-25T04:28:00.127Z, 6.7
2023-04-25T04:30:00.054Z, 7.9
2023-04-25T04:32:00.096Z, 7.9
2023-04-25T04:34:00.052Z, 8.4
2023-04-25T04:36:00.139Z, 8.4
2023-04-25T04:38:00.052Z, 8.4
2023-04-25T04:40:00.067Z, 7.8
2023-04-25T04:42:00.044Z, 7.8
2023-04-25T04:44:00.047Z, 8.9
2023-04-25T04:46:00.051Z, 8.9
2023-04-25T04:48:00.134Z, 8.9
2023-04-25T04:50:00.152Z, 7.2
2023-04-25T04:52:00.120Z, 7.2
2023-04-25T04:54:00.150Z, 8.3
2023-04-25T04:56:00.165Z, 8.3
2023-04-25T04:58:00.116Z, 8.3
2023-04-25T05:00:00.197Z, 8.3
2023-04-25T05:02:00.164Z, 8.3
2023-04-25T05:04:00.308Z, 8.4
2023-04-25T05:06:00.176Z, 8.4
2023-04-25T05:08:00.111Z, 8.4
2023-04-25T05:10:00.143Z, 8.7
2023-04-25T05:12:00.140Z, 8.7
2023-04-25T05:14:00.131Z, 7.6
2023-04-25T05:16:00.190Z, 7.6
2023-04-25T05:18:00.184Z, 7.6
2023-04-25T05:20:00.110Z, 8
2023-04-25T05:22:00.071Z, 8
2023-04-25T05:24:00.097Z, 8.9
2023-04-25T05:26:00.064Z, 8.9
2023-04-25T05:28:00.110Z, 8.6
2023-04-25T05:30:00.118Z, 8.6
2023-04-25T05:32:00.073Z, 8.6
2023-04-25T05:34:00.061Z, 7.5
2023-04-25T05:36:00.073Z, 7.5
2023-04-25T05:38:00.050Z, 7.9
2023-04-25T05:40:00.052Z, 7.9
2023-04-25T05:42:00.061Z, 7.9
2023-04-25T05:44:00.253Z, 6.9
2023-04-25T05:46:00.068Z, 6.9
2023-04-25T05:48:00.135Z, 8.6
2023-04-25T05:50:00.114Z, 8.6
2023-04-25T05:52:00.104Z, 8.6
2023-04-25T05:54:00.111Z, 7.8
2023-04-25T05:56:00.121Z, 7.8
2023-04-25T05:58:00.164Z, 8.4
2023-04-25T06:00:00.155Z, 8.4
2023-04-25T06:02:00.172Z, 8.4
2023-04-25T06:04:00.277Z, 8.5
2023-04-25T06:06:00.163Z, 8.5
2023-04-25T06:08:00.141Z, 6.9
2023-04-25T06:10:00.121Z, 6.9
2023-04-25T06:12:00.123Z, 6.9
2023-04-25T06:14:00.106Z, 9.1
2023-04-25T06:16:00.184Z, 9.1
2023-04-25T06:18:00.185Z, 7.1
2023-04-25T06:20:00.081Z, 7.1
2023-04-25T06:22:00.046Z, 7.1
2023-04-25T06:24:00.053Z, 8.7
2023-04-25T06:26:00.038Z, 8.7
2023-04-25T06:28:00.042Z, 8.2
2023-04-25T06:30:00.047Z, 8.2
2023-04-25T06:32:00.033Z, 8.2
2023-04-25T06:34:00.013Z, 7.9
2023-04-25T06:36:00.057Z, 7.9
2023-04-25T06:38:00.038Z, 8
2023-04-25T06:40:00.069Z, 8
2023-04-25T06:42:00.046Z, 8
2023-04-25T06:44:00.062Z, 6.5
2023-04-25T06:46:00.045Z, 6.5
2023-04-25T06:48:00.168Z, 6.9
2023-04-25T06:50:00.141Z, 6.9
2023-04-25T06:52:00.094Z, 6.9
2023-04-25T06:54:00.107Z, 5.5
2023-04-25T06:56:00.096Z, 5.5
2023-04-25T06:58:00.107Z, 5
2023-04-25T07:00:02.127Z, 5
2023-04-25T07:02:00.088Z, 5
2023-04-25T07:04:00.350Z, 5.4
2023-04-25T07:06:00.144Z, 5.4
2023-04-25T07:08:00.096Z, 3.5
2023-04-25T07:10:00.161Z, 3.5
2023-04-25T07:12:00.141Z, 3.5
2023-04-25T07:14:00.136Z, 4.2
2023-04-25T07:16:00.207Z, 4.2
2023-04-25T07:18:00.272Z, 5.5
2023-04-25T07:20:00.086Z, 5.5
2023-04-25T07:22:00.053Z, 5.5
2023-04-25T07:24:00.080Z, 5.1
2023-04-25T07:26:00.053Z, 5.1
2023-04-25T07:28:00.047Z, 5.7
2023-04-25T07:30:00.069Z, 5.7
2023-04-25T07:32:00.073Z, 5.7
2023-04-25T07:34:02.037Z, 7.1
2023-04-25T07:36:00.058Z, 7.1
2023-04-25T07:38:00.123Z, 6
2023-04-25T07:40:00.060Z, 6
2023-04-25T07:42:00.082Z, 6
2023-04-25T07:44:00.064Z, 7.2
2023-04-25T07:46:00.101Z, 7.2
2023-04-25T07:48:00.171Z, 7
2023-04-25T07:50:00.118Z, 7
2023-04-25T07:52:00.122Z, 7
2023-04-25T07:54:00.126Z, 6.4
2023-04-25T07:56:00.137Z, 6.4
2023-04-25T07:58:00.139Z, 8.2
2023-04-25T08:00:00.126Z, 8.2
2023-04-25T08:02:00.103Z, 8.2
2023-04-25T08:04:00.402Z, 9.6
2023-04-25T08:06:00.468Z, 9.6
2023-04-25T08:08:00.126Z, 8.2
2023-04-25T08:10:00.164Z, 8.2
2023-04-25T08:12:00.139Z, 8.2
2023-04-25T08:14:00.152Z, 7.9
2023-04-25T08:16:00.215Z, 7.9
2023-04-25T08:18:00.216Z, 9.4
2023-04-25T08:20:00.070Z, 9.4
2023-04-25T08:22:00.050Z, 8.9
2023-04-25T08:24:00.097Z, 7.4
2023-04-25T08:26:00.044Z, 7.4
2023-04-25T08:28:00.060Z, 7.4
2023-04-25T08:30:00.053Z, 7.4
2023-04-25T08:32:00.038Z, 9
2023-04-25T08:34:00.048Z, 9
2023-04-25T08:36:00.066Z, 9
2023-04-25T08:38:00.065Z, 8.9
2023-04-25T08:40:00.121Z, 8.9
2023-04-25T08:42:00.060Z, 8
2023-04-25T08:44:00.066Z, 8
2023-04-25T08:46:00.065Z, 8
2023-04-25T08:48:00.116Z, 9.3
2023-04-25T08:50:00.089Z, 9.3
2023-04-25T08:52:00.383Z, 9.4
2023-04-25T08:54:06.815Z, 9.4
2023-04-25T08:56:00.149Z, 9.4
2023-04-25T08:58:00.092Z, 6.4
2023-04-25T09:00:00.136Z, 6.4
2023-04-25T09:02:00.161Z, 7.5
2023-04-25T09:04:00.253Z, 7.5
2023-04-25T09:06:00.095Z, 7.5
2023-04-25T09:08:00.128Z, 9.2
2023-04-25T09:10:00.141Z, 9.2
2023-04-25T09:12:00.118Z, 7.6
2023-04-25T09:14:00.171Z, 7.6
2023-04-25T09:16:00.170Z, 7.6
2023-04-25T09:18:00.188Z, 7.6
2023-04-25T09:20:00.074Z, 7.6
2023-04-25T09:22:00.051Z, 8.2
2023-04-25T09:24:00.057Z, 8.2
2023-04-25T09:26:00.069Z, 8.2
2023-04-25T09:28:00.069Z, 5.5
2023-04-25T09:30:00.065Z, 5.5
2023-04-25T09:32:00.153Z, 7
2023-04-25T09:34:00.277Z, 7
2023-04-25T09:36:00.046Z, 7
2023-04-25T09:38:00.056Z, 8.3
2023-04-25T09:40:00.061Z, 8.3
2023-04-25T09:42:00.034Z, 8
2023-04-25T09:44:00.452Z, 8
2023-04-25T09:46:00.086Z, 8
2023-04-25T09:48:00.051Z, 5.9
2023-04-25T09:50:00.150Z, 5.9
2023-04-25T09:52:00.106Z, 7.7
2023-04-25T09:54:00.144Z, 7.7
2023-04-25T09:56:00.128Z, 7.7
2023-04-25T09:58:00.105Z, 7.5
2023-04-25T10:00:00.177Z, 7.5
2023-04-25T10:02:00.114Z, 5.8
2023-04-25T10:04:00.641Z, 5.8
2023-04-25T10:06:00.128Z, 5.8
2023-04-25T10:08:00.124Z, 4.7
2023-04-25T10:10:00.136Z, 4.7
2023-04-25T10:12:00.138Z, 6.4
2023-04-25T10:14:00.090Z, 6.4
2023-04-25T10:16:00.127Z, 6.4
2023-04-25T10:18:00.212Z, 7.1
2023-04-25T10:20:00.097Z, 7.1
2023-04-25T10:22:00.059Z, 5.1
2023-04-25T10:24:00.069Z, 5.1
2023-04-25T10:26:00.054Z, 5.1
2023-04-25T10:28:00.059Z, 5.5
2023-04-25T10:30:00.056Z, 5.5
2023-04-25T10:32:00.082Z, 6.3
2023-04-25T10:34:00.072Z, 6.3
2023-04-25T10:36:00.062Z, 6.3
2023-04-25T10:38:00.054Z, 4.5
2023-04-25T10:40:00.070Z, 4.5
2023-04-25T10:42:00.049Z, 6.9
2023-04-25T10:44:00.032Z, 6.9
2023-04-25T10:46:00.022Z, 6.9
2023-04-25T10:48:00.068Z, 4.9
2023-04-25T10:50:00.124Z, 4.9
2023-04-25T10:52:00.120Z, 6.3
2023-04-25T10:54:00.184Z, 6.3
2023-04-25T10:56:00.163Z, 6.3
2023-04-25T10:58:00.237Z, 7.5
2023-04-25T11:00:00.151Z, 7.5
2023-04-25T11:02:00.395Z, 5
2023-04-25T11:04:00.340Z, 5
2023-04-25T11:06:00.137Z, 5
2023-04-25T11:10:00.145Z, 5.1
2023-04-25T11:12:00.120Z, 5.9
2023-04-25T11:14:00.140Z, 5.9
2023-04-25T11:16:07.502Z, 5.9
2023-04-25T11:18:00.207Z, 5.2
2023-04-25T11:20:00.114Z, 5.2
2023-04-25T11:22:00.064Z, 3.3
2023-04-25T11:24:00.076Z, 3.3
2023-04-25T11:26:00.067Z, 3.3
2023-04-25T11:28:00.039Z, 4.9
2023-04-25T11:30:00.060Z, 4.9
2023-04-25T11:32:00.068Z, 5.8
2023-04-25T11:34:00.030Z, 5.8
2023-04-25T11:36:00.050Z, 5.1
2023-04-25T11:38:00.032Z, 3.3
2023-04-25T11:40:00.050Z, 3.3
2023-04-25T11:42:14.017Z, 4.9
2023-04-25T11:44:00.050Z, 4.9
2023-04-25T11:46:00.076Z, 3.8
2023-04-25T11:48:00.079Z, 3.8
2023-04-25T11:50:00.134Z, 3.8
2023-04-25T11:52:00.165Z, 3.7
2023-04-25T11:54:00.117Z, 3.7
2023-04-25T11:56:00.146Z, 5.8
2023-04-25T11:58:00.106Z, 5.8
2023-04-25T12:00:00.112Z, 5.8
2023-04-25T12:02:00.114Z, 4.5
2023-04-25T12:04:00.346Z, 4.5
2023-04-25T12:06:00.204Z, 5.7
2023-04-25T12:08:00.106Z, 5.7
2023-04-25T12:10:00.181Z, 5.7
2023-04-25T12:12:00.180Z, 4.6
2023-04-25T12:14:00.116Z, 4.6
2023-04-25T12:16:00.169Z, 4.5
2023-04-25T12:18:00.212Z, 4.5
2023-04-25T12:20:00.076Z, 4.5
2023-04-25T12:22:00.061Z, 5.7
2023-04-25T12:24:00.067Z, 5.7
2023-04-25T12:26:00.051Z, 5.7
2023-04-25T12:28:00.064Z, 5.7
2023-04-25T12:30:00.058Z, 5.7
2023-04-25T12:32:00.131Z, 4.5
2023-04-25T12:34:00.048Z, 4.5
2023-04-25T12:36:00.051Z, 4.7
2023-04-25T12:38:00.063Z, 4.7
2023-04-25T12:40:00.054Z, 4.7
2023-04-25T12:42:00.053Z, 5
2023-04-25T12:44:00.041Z, 5
2023-04-25T12:46:00.027Z, 4.4
2023-04-25T12:48:01.909Z, 4.4
2023-04-25T12:50:00.134Z, 4.4
2023-04-25T12:52:00.108Z, 3.6
2023-04-25T12:54:00.156Z, 3.6
2023-04-25T12:56:00.196Z, 3.4
2023-04-25T12:58:00.130Z, 3.4
2023-04-25T13:00:00.141Z, 3.4
2023-04-25T13:02:00.214Z, 6
2023-04-25T13:04:00.239Z, 6
2023-04-25T13:06:00.145Z, 3.2
2023-04-25T13:08:00.129Z, 3.2
2023-04-25T13:10:00.128Z, 3.2
2023-04-25T13:12:00.125Z, 3.6
2023-04-25T13:14:00.131Z, 3.6
2023-04-25T13:16:00.199Z, 3.3
2023-04-25T13:18:00.195Z, 3.3
2023-04-25T13:20:00.067Z, 3.3
2023-04-25T13:22:00.121Z, 3.7
2023-04-25T13:24:00.060Z, 3.7
2023-04-25T13:26:00.042Z, 3
2023-04-25T13:28:00.056Z, 3
2023-04-25T13:30:00.061Z, 3
2023-04-25T13:32:00.090Z, 4.2
2023-04-25T13:34:00.049Z, 4.2
2023-04-25T13:36:00.036Z, 5.6
2023-04-25T13:38:00.065Z, 5.6
2023-04-25T13:40:00.046Z, 5.6
2023-04-25T13:42:00.050Z, 6.6
2023-04-25T13:44:00.027Z, 6.6
2023-04-25T13:46:00.064Z, 4.1
2023-04-25T13:48:00.164Z, 4.1
2023-04-25T13:50:00.100Z, 4.1
2023-04-25T13:52:00.131Z, 3.3
2023-04-25T13:54:00.139Z, 3.3
2023-04-25T13:56:00.104Z, 3
2023-04-25T13:58:00.123Z, 3
2023-04-25T14:00:00.167Z, 3
2023-04-25T14:02:00.193Z, 3.2
2023-04-25T14:04:00.162Z, 3.2
2023-04-25T14:06:00.129Z, 4.2
2023-04-25T14:08:01.030Z, 4.2
2023-04-25T14:10:00.131Z, 4.2
2023-04-25T14:12:00.147Z, 4.3
2023-04-25T14:14:00.140Z, 4.3
2023-04-25T14:16:00.154Z, 5.7
2023-04-25T14:18:00.190Z, 5.7
2023-04-25T14:20:00.074Z, 5.7
2023-04-25T14:22:00.065Z, 5.3
2023-04-25T14:24:00.082Z, 5.3
2023-04-25T14:26:00.069Z, 3.8
2023-04-25T14:28:00.059Z, 3.8
2023-04-25T14:30:00.098Z, 3.8
2023-04-25T14:32:00.058Z, 3.2
2023-04-25T14:34:00.105Z, 3.2
2023-04-25T14:36:00.057Z, 3.4
2023-04-25T14:38:00.089Z, 3.4
2023-04-25T14:40:00.063Z, 3.4
2023-04-25T14:42:00.058Z, 5.1
2023-04-25T14:44:00.070Z, 5.1
2023-04-25T14:46:00.042Z, 6.2
2023-04-25T14:48:00.167Z, 6.2
2023-04-25T14:50:00.158Z, 6.2
2023-04-25T14:52:00.123Z, 5.5
2023-04-25T14:54:00.147Z, 5.5
2023-04-25T14:56:00.117Z, 3.2
2023-04-25T14:58:00.123Z, 3.2
2023-04-25T15:00:00.136Z, 2.8
2023-04-25T15:02:00.146Z, 2.7
2023-04-25T15:04:00.422Z, 2.7
2023-04-25T15:06:00.148Z, 2.4
2023-04-25T15:08:00.134Z, 2.4
2023-04-25T15:10:00.266Z, 5.2
2023-04-25T15:12:00.123Z, 5.2
2023-04-25T15:14:00.124Z, 5.2
2023-04-25T15:16:00.131Z, 5.7
2023-04-25T15:18:00.151Z, 5.7
2023-04-25T15:20:00.255Z, 5.9
2023-04-25T15:22:00.062Z, 5.9
2023-04-25T15:24:00.067Z, 5.9
2023-04-25T15:26:00.062Z, 3.5
2023-04-25T15:28:00.057Z, 3.5
2023-04-25T15:30:00.107Z, 2.9
2023-04-25T15:32:00.132Z, 2.9
2023-04-25T15:34:00.098Z, 2.9
2023-04-25T15:36:00.056Z, 2.3
2023-04-25T15:38:00.057Z, 2.3
2023-04-25T15:40:00.053Z, 2.7
2023-04-25T15:42:00.069Z, 2.7
2023-04-25T15:44:00.067Z, 2.7
2023-04-25T15:46:00.114Z, 3.4
2023-04-25T15:48:00.090Z, 3.4
2023-04-25T15:50:00.141Z, 4.5
2023-04-25T15:52:00.113Z, 4.5
2023-04-25T15:54:00.120Z, 4.5
2023-04-25T15:56:00.160Z, 3.4
2023-04-25T15:58:00.131Z, 3.4
2023-04-25T16:00:00.152Z, 3.4
2023-04-25T16:02:00.181Z, 3.4
2023-04-25T16:04:00.304Z, 3.4
2023-04-25T16:06:00.116Z, 2.3
2023-04-25T16:08:00.106Z, 2.3
2023-04-25T16:10:00.154Z, 2.9
2023-04-25T16:12:00.158Z, 2.9
2023-04-25T16:14:00.126Z, 2.9
2023-04-25T16:16:00.150Z, 3.2
2023-04-25T16:18:00.168Z, 3.2
2023-04-25T16:20:00.066Z, 2.4
2023-04-25T16:22:00.065Z, 2.4
2023-04-25T16:24:00.077Z, 2.4
2023-04-25T16:26:00.086Z, 7.9
2023-04-25T16:28:00.049Z, 7.9
2023-04-25T16:30:00.081Z, 5.6
2023-04-25T16:32:00.120Z, 5.6
2023-04-25T16:34:00.061Z, 5.6
2023-04-25T16:36:00.071Z, 3.6
2023-04-25T16:38:00.088Z, 3.6
2023-04-25T16:40:00.069Z, 4.2
2023-04-25T16:42:00.073Z, 4.2
2023-04-25T16:44:00.042Z, 4.2
2023-04-25T16:46:00.069Z, 3.6
2023-04-25T16:48:00.090Z, 3.6
2023-04-25T16:50:00.136Z, 4.2
2023-04-25T16:52:00.139Z, 4.2
2023-04-25T16:54:00.110Z, 4.2
2023-04-25T16:56:00.120Z, 4.3
2023-04-25T16:58:00.149Z, 4.3
2023-04-25T17:00:00.176Z, 4.5
2023-04-25T17:02:00.166Z, 4.5
2023-04-25T17:04:00.604Z, 4.5
2023-04-25T17:06:00.122Z, 4.9
2023-04-25T17:08:00.120Z, 4.9
2023-04-25T17:10:00.157Z, 3.7
2023-04-25T17:12:00.192Z, 3.7
2023-04-25T17:14:00.105Z, 3.7
2023-04-25T17:16:00.132Z, 2.1
2023-04-25T17:18:00.186Z, 2.1
2023-04-25T17:20:00.102Z, 1.6
2023-04-25T17:22:00.099Z, 1.6
2023-04-25T17:24:00.190Z, 1.6
2023-04-25T17:26:00.100Z, 1.7
2023-04-25T17:28:00.067Z, 1.7
2023-04-25T17:30:00.099Z, 2.1
2023-04-25T17:32:00.066Z, 2.1
2023-04-25T17:34:00.077Z, 2.1
2023-04-25T17:36:00.092Z, 3.2
2023-04-25T17:38:00.066Z, 3.2
2023-04-25T17:40:00.067Z, 4.6
2023-04-25T17:42:00.967Z, 4.6
2023-04-25T17:44:00.076Z, 4.6
2023-04-25T17:46:00.121Z, 5.5
2023-04-25T17:48:00.118Z, 5.5
2023-04-25T17:50:00.112Z, 3.1
2023-04-25T17:52:00.113Z, 3.1
2023-04-25T17:54:00.151Z, 3.1
2023-04-25T17:56:00.136Z, 2.2
2023-04-25T17:58:00.098Z, 2.2
2023-04-25T18:00:00.164Z, 4.2
2023-04-25T18:02:00.210Z, 4.2
2023-04-25T18:04:00.312Z, 4.2
2023-04-25T18:06:00.112Z, 3.7
2023-04-25T18:08:00.146Z, 3.7
2023-04-25T18:10:00.175Z, 2.3
2023-04-25T18:12:00.122Z, 2.3
2023-04-25T18:14:00.128Z, 2.8
2023-04-25T18:16:00.149Z, 3
2023-04-25T18:18:00.201Z, 3
2023-04-25T18:20:00.100Z, 3.9
2023-04-25T18:22:00.097Z, 3.9
2023-04-25T18:24:00.095Z, 1.8
2023-04-25T18:26:00.063Z, 1.8
2023-04-25T18:28:00.074Z, 1.8
2023-04-25T18:30:00.071Z, 3.9
2023-04-25T18:32:00.189Z, 3.9
2023-04-25T18:34:00.059Z, 4.9
2023-04-25T18:36:00.127Z, 4.9
2023-04-25T18:38:00.060Z, 4.9
2023-04-25T18:40:00.062Z, 2.2
2023-04-25T18:42:04.666Z, 2.2
2023-04-25T18:44:00.049Z, 3.6
2023-04-25T18:46:00.149Z, 3.6
2023-04-25T18:48:01.181Z, 3.6
2023-04-25T18:50:00.110Z, 3.3
2023-04-25T18:52:00.093Z, 3.3
2023-04-25T18:54:00.099Z, 3.8
2023-04-25T18:56:00.169Z, 3.8
2023-04-25T18:58:00.142Z, 3.8
2023-04-25T19:00:00.156Z, 5
2023-04-25T19:02:00.169Z, 5
2023-04-25T19:04:00.885Z, 8.6
2023-04-25T19:06:00.124Z, 8.6
2023-04-25T19:08:00.126Z, 8.6
2023-04-25T19:10:00.280Z, 16.6
2023-04-25T19:12:00.137Z, 16.6
2023-04-25T19:14:00.121Z, 9.1
2023-04-25T19:16:00.132Z, 9.1
2023-04-25T19:18:00.224Z, 9.1
2023-04-25T19:20:00.049Z, 6
2023-04-25T19:22:00.049Z, 6
2023-04-25T19:24:00.052Z, 3.8
2023-04-25T19:26:00.054Z, 3.8
2023-04-25T19:28:00.082Z, 3.8
2023-04-25T19:30:00.057Z, 6
2023-04-25T19:32:00.072Z, 6
2023-04-25T19:34:00.069Z, 5.6
2023-04-25T19:36:00.066Z, 5.6
2023-04-25T19:38:00.036Z, 5.6
2023-04-25T19:40:00.050Z, 3.2
2023-04-25T19:42:00.048Z, 3.2
2023-04-25T19:44:00.070Z, 5.6
2023-04-25T19:46:00.108Z, 5.6
2023-04-25T19:48:00.103Z, 5.6
2023-04-25T19:50:00.143Z, 5.3
2023-04-25T19:52:00.108Z, 5.3
2023-04-25T19:54:00.118Z, 4.3
2023-04-25T19:56:00.143Z, 4.3
2023-04-25T19:58:00.151Z, 4.3
2023-04-25T20:00:00.121Z, 15.2
2023-04-25T20:02:00.189Z, 15.2
2023-04-25T20:04:00.137Z, 9.3
2023-04-25T20:06:00.145Z, 9.3
2023-04-25T20:08:00.095Z, 9.3
2023-04-25T20:10:00.156Z, 3.2
2023-04-25T20:12:00.138Z, 3.2
2023-04-25T20:14:00.129Z, 3.6
2023-04-25T20:16:02.517Z, 3.6
2023-04-25T20:18:00.232Z, 3.6
2023-04-25T20:20:00.111Z, 6.1
2023-04-25T20:22:00.086Z, 6.1
2023-04-25T20:24:00.088Z, 4.1
2023-04-25T20:26:00.078Z, 4.1
2023-04-25T20:28:00.067Z, 4.1
2023-04-25T20:30:00.064Z, 3.1
2023-04-25T20:32:02.625Z, 3.1
2023-04-25T20:34:00.054Z, 4.7
2023-04-25T20:36:00.050Z, 4.7
2023-04-25T20:38:00.059Z, 4.7
2023-04-25T20:40:00.056Z, 3.7
2023-04-25T20:42:00.091Z, 3.7
2023-04-25T20:44:00.053Z, 2.9
2023-04-25T20:46:00.147Z, 2.9
2023-04-25T20:48:00.093Z, 2.9
2023-04-25T20:50:00.104Z, 4.1
2023-04-25T20:52:00.121Z, 4.1
2023-04-25T20:54:00.131Z, 4.3
2023-04-25T20:56:00.118Z, 4.3
2023-04-25T20:58:00.119Z, 4.3
2023-04-25T21:00:00.139Z, 2.7
2023-04-25T21:02:00.139Z, 2.7
2023-04-25T21:04:00.218Z, 4.1
2023-04-25T21:06:00.145Z, 4.1
2023-04-25T21:08:00.114Z, 4.1
2023-04-25T21:10:00.145Z, 5.2
2023-04-25T21:12:00.136Z, 5.2
2023-04-25T21:14:00.163Z, 2.3
2023-04-25T21:16:00.153Z, 2.3
2023-04-25T21:18:00.235Z, 2.8
2023-04-25T21:20:00.077Z, 3
2023-04-25T21:22:00.117Z, 3
2023-04-25T21:24:00.060Z, 4.8
2023-04-25T21:26:00.048Z, 4.8
2023-04-25T21:28:00.089Z, 3
2023-04-25T21:30:00.076Z, 3
2023-04-25T21:32:00.078Z, 3
2023-04-25T21:34:00.062Z, 2.9
2023-04-25T21:36:00.081Z, 2.9
2023-04-25T21:38:00.077Z, 5.3
2023-04-25T21:40:00.054Z, 5.3
2023-04-25T21:42:00.044Z, 5.3
2023-04-25T21:44:00.074Z, 4.7
2023-04-25T21:46:21.619Z, 4.7
2023-04-25T21:48:00.102Z, 2.8
2023-04-25T21:50:00.153Z, 2.8
2023-04-25T21:52:00.136Z, 2.8
2023-04-25T21:54:00.165Z, 4.8
2023-04-25T21:56:00.113Z, 4.8
2023-04-25T21:58:00.139Z, 5.5
2023-04-25T22:00:00.154Z, 5.5
2023-04-25T22:02:00.201Z, 5.5
2023-04-25T22:04:00.293Z, 3.1
2023-04-25T22:06:00.164Z, 3.1
2023-04-25T22:08:00.105Z, 3.1
2023-04-25T22:10:00.136Z, 3.1
2023-04-25T22:12:00.135Z, 3.1
2023-04-25T22:14:00.124Z, 4.7
2023-04-25T22:16:00.159Z, 4.7
2023-04-25T22:18:00.189Z, 2.9
2023-04-25T22:20:00.068Z, 2.9
2023-04-25T22:22:00.096Z, 2.9
2023-04-25T22:24:00.154Z, 2.8
2023-04-25T22:26:00.102Z, 2.8
2023-04-25T22:28:00.073Z, 5
2023-04-25T22:30:00.100Z, 5
2023-04-25T22:32:00.156Z, 5
2023-04-25T22:34:00.070Z, 3
2023-04-25T22:36:00.060Z, 3
2023-04-25T22:38:00.055Z, 2.2
2023-04-25T22:40:00.086Z, 2.2
2023-04-25T22:42:00.097Z, 2.2
2023-04-25T22:44:00.070Z, 4.8
2023-04-25T22:46:00.129Z, 4.8
2023-04-25T22:48:00.093Z, 2.9
2023-04-25T22:50:00.132Z, 2.9
2023-04-25T22:52:00.096Z, 2.9
2023-04-25T22:54:00.106Z, 3.4
2023-04-25T22:56:00.136Z, 3.4
2023-04-25T22:58:00.116Z, 4.4
2023-04-25T23:00:00.173Z, 4.4
2023-04-25T23:02:00.131Z, 4.4
2023-04-25T23:04:00.284Z, 3
2023-04-25T23:06:00.109Z, 3
2023-04-25T23:08:00.136Z, 4
2023-04-25T23:10:00.152Z, 4
2023-04-25T23:12:00.168Z, 4
2023-04-25T23:14:00.142Z, 3.7
2023-04-25T23:16:00.127Z, 3.7
2023-04-25T23:18:00.176Z, 2.4
2023-04-25T23:20:00.096Z, 2.4
2023-04-25T23:22:00.054Z, 2.4
2023-04-25T23:24:00.072Z, 3.4
2023-04-25T23:26:00.073Z, 3.4
2023-04-25T23:28:00.060Z, 4.6
2023-04-25T23:30:00.072Z, 4.6
2023-04-25T23:32:00.072Z, 4.6
2023-04-25T23:34:00.064Z, 2.4
2023-04-25T23:36:00.155Z, 2.4
2023-04-25T23:38:00.050Z, 2.9
2023-04-25T23:40:00.080Z, 2.9
2023-04-25T23:42:00.054Z, 2.9
2023-04-25T23:44:00.063Z, 3.9
2023-04-25T23:46:00.124Z, 3.9
2023-04-25T23:48:00.178Z, 2.3
2023-04-25T23:50:00.158Z, 2.3
2023-04-25T23:52:00.119Z, 2.3
2023-04-25T23:54:00.155Z, 3.1
2023-04-25T23:56:00.155Z, 3.1
2023-04-25T23:58:00.115Z, 4.2
